Time;durP1;ratioP1;P1;durP2;ratioP2;P2;SDS_P1;SDS_P2;PMS_P1;PMS_P2;Temp;Humidity;BMP_temperature;BMP_pressure;BME280_temperature;BME280_humidity;BME280_pressure;Samples;Min_cycle;Max_cycle;Signal;HPM_P1;HPM_P2
2021/05/27 00:00:59;;;;;;;;;;;;;;;18.49;71.46;94813.88;5007820;28;20000;-81
2021/05/27 00:03:24;;;;;;;;;;;;;;;18.53;71.49;94824.63;5033110;23;19924;-80
2021/05/27 00:05:50;;;;;;;;;;;;;;;18.50;71.42;94817.31;5040503;28;19924;-81
2021/05/27 00:08:15;;;;;;;;;;;;;;;18.55;70.96;94820.69;5048577;22;19933;-81
2021/05/27 00:10:43;;;;;;;;;;;;;;;18.55;70.98;94819.91;5026484;28;19929;-81
2021/05/27 00:13:08;;;;;;;;;;;;;;;18.55;70.96;94822.53;5056106;22;19962;-82
2021/05/27 00:15:34;;;;;;;;;;;;;;;18.54;71.18;94823.56;5052672;28;19929;-81
2021/05/27 00:17:59;;;;;;;;;;;;;;;18.53;71.32;94820.16;5068149;28;19942;-81
2021/05/27 00:20:25;;;;;;;;;;;;;;;18.53;70.80;94814.09;5042804;28;19929;-81
2021/05/27 00:25:39;;;;;;;;;;;;;;;18.50;70.81;94812.81;5594951;22;19996;-82
2021/05/27 00:28:04;;;;;;;;;;;;;;;18.48;71.18;94812.31;5027692;28;20548;-82
2021/05/27 00:30:29;;;;;;;;;;;;;;;18.48;70.90;94819.44;5045939;22;20450;-82
2021/05/27 00:32:54;;;;;;;;;;;;;;;18.47;70.74;94813.38;5044471;28;19925;-82
2021/05/27 00:35:20;;;;;;;;;;;;;;;18.41;71.43;94809.25;5024990;28;19922;-82
2021/05/27 00:37:45;;;;;;;;;;;;;;;18.43;71.24;94812.38;5026596;28;20463;-81
2021/05/27 00:40:11;;;;;;;;;;;;;;;18.45;71.03;94818.16;5040270;28;19921;-81
2021/05/27 00:42:38;;;;;;;;;;;;;;;18.42;70.70;94818.72;5041888;28;19929;-81
2021/05/27 00:45:11;;;;;;;;;;;;;;;18.39;69.88;94829.03;5042464;28;20015;-82
2021/05/27 00:47:36;;;;;;;;;;;;;;;18.36;70.48;94830.34;5045713;28;19929;-81
2021/05/27 00:50:02;;;;;;;;;;;;;;;18.38;70.06;94833.50;5042037;28;19921;-82
2021/05/27 00:52:28;;;;;;;;;;;;;;;18.37;70.18;94831.91;5024544;28;19924;-82
2021/05/27 00:54:54;;;;;;;;;;;;;;;18.35;70.36;94836.69;5044863;28;20036;-82
2021/05/27 00:57:32;;;;;;;;;;;;;;;18.35;70.24;94828.78;5003792;23;19940;-80
2021/05/27 01:00:01;;;;;;;;;;;;;;;18.32;70.42;94821.44;4981792;28;19922;-80
2021/05/27 01:02:27;;;;;;;;;;;;;;;18.32;70.70;94821.44;4981317;28;19929;-80
2021/05/27 01:04:52;;;;;;;;;;;;;;;18.30;71.23;94820.94;4980625;28;19925;-79
2021/05/27 01:07:17;;;;;;;;;;;;;;;18.33;71.57;94822.22;4963938;28;19923;-80
2021/05/27 01:09:43;;;;;;;;;;;;;;;18.35;70.40;94828.78;4979295;28;19953;-80
2021/05/27 01:12:09;;;;;;;;;;;;;;;18.30;70.51;94827.00;4971034;28;19973;-81
2021/05/27 01:17:18;;;;;;;;;;;;;;;18.25;70.53;94821.00;4985156;28;19963;-81
2021/05/27 01:19:43;;;;;;;;;;;;;;;18.26;70.58;94806.78;4986428;28;19930;-82
2021/05/27 01:22:08;;;;;;;;;;;;;;;18.27;70.54;94809.13;4965659;28;19926;-83
2021/05/27 01:24:34;;;;;;;;;;;;;;;18.28;70.65;94807.28;4985642;28;20373;-83
2021/05/27 01:27:00;;;;;;;;;;;;;;;18.26;70.87;94798.88;4985814;28;19932;-82
2021/05/27 01:29:25;;;;;;;;;;;;;;;18.24;70.83;94791.28;4966017;28;19929;-83
2021/05/27 01:31:50;;;;;;;;;;;;;;;18.24;70.44;94785.22;4969310;28;19988;-83
2021/05/27 01:34:16;;;;;;;;;;;;;;;18.23;70.70;94783.66;4987576;28;19918;-82
2021/05/27 01:36:56;;;;;;;;;;;;;;;18.24;71.01;94782.59;4961544;28;20333;-82
2021/05/27 01:39:22;;;;;;;;;;;;;;;18.24;70.90;94779.97;4993149;28;20409;-82
2021/05/27 01:41:48;;;;;;;;;;;;;;;18.20;70.75;94792.09;4984378;28;19922;-83
2021/05/27 01:44:14;;;;;;;;;;;;;;;18.16;70.77;94783.97;5046681;22;19929;-82
2021/05/27 01:46:40;;;;;;;;;;;;;;;18.16;70.89;94777.94;5034570;28;19927;-82
2021/05/27 01:49:05;;;;;;;;;;;;;;;18.17;71.11;94779.50;5035131;28;19932;-82
2021/05/27 01:51:31;;;;;;;;;;;;;;;18.19;70.77;94778.16;5015268;28;19921;-82
2021/05/27 01:53:56;;;;;;;;;;;;;;;18.18;71.16;94787.09;5085795;22;19953;-82
2021/05/27 01:56:21;;;;;;;;;;;;;;;18.17;71.79;94784.75;5045149;28;19917;-82
2021/05/27 01:58:46;;;;;;;;;;;;;;;18.17;71.90;94790.03;5046734;28;19997;-81
2021/05/27 02:01:12;;;;;;;;;;;;;;;18.24;71.60;94790.50;5043782;28;19925;-82
2021/05/27 02:03:43;;;;;;;;;;;;;;;18.22;71.49;94788.13;5048955;28;20407;-82
2021/05/27 02:06:08;;;;;;;;;;;;;;;17.95;72.77;94786.03;5048708;28;20527;-83
2021/05/27 02:08:34;;;;;;;;;;;;;;;17.84;73.30;94787.19;5037401;28;19964;-82
2021/05/27 02:10:59;;;;;;;;;;;;;;;17.89;73.37;94789.75;5043079;22;20015;-82
2021/05/27 02:13:24;;;;;;;;;;;;;;;17.91;73.09;94792.94;5055059;28;19937;-81
2021/05/27 02:15:49;;;;;;;;;;;;;;;17.92;73.20;94798.97;5047691;28;20499;-81
2021/05/27 02:18:15;;;;;;;;;;;;;;;17.73;73.76;94805.97;5009929;23;19979;-82
2021/05/27 02:20:40;;;;;;;;;;;;;;;17.85;73.45;94803.75;5033796;28;19925;-81
2021/05/27 02:23:05;;;;;;;;;;;;;;;17.87;73.39;94805.03;5034349;28;19921;-82
2021/05/27 02:25:34;;;;;;;;;;;;;;;17.80;73.28;94807.22;5034203;28;20397;-82
2021/05/27 02:27:59;;;;;;;;;;;;;;;17.76;73.35;94806.22;5031056;28;20071;-82
2021/05/27 02:30:24;;;;;;;;;;;;;;;17.74;73.63;94807.56;5034268;28;20535;-82
2021/05/27 02:32:50;;;;;;;;;;;;;;;17.78;73.68;94803.31;5056103;23;19922;-80
2021/05/27 02:35:15;;;;;;;;;;;;;;;17.81;73.48;94803.53;5038955;28;19921;-80
2021/05/27 02:37:40;;;;;;;;;;;;;;;17.68;73.95;94796.28;5012087;28;19925;-81
2021/05/27 02:40:06;;;;;;;;;;;;;;;17.62;74.12;94802.63;5027065;28;19975;-82
2021/05/27 02:42:31;;;;;;;;;;;;;;;17.63;74.28;94796.28;5026498;28;19917;-82
2021/05/27 02:44:56;;;;;;;;;;;;;;;17.38;75.08;94798.06;4998834;28;19921;-81
2021/05/27 02:47:22;;;;;;;;;;;;;;;17.37;75.32;94799.13;4998827;28;19944;-81
2021/05/27 02:49:47;;;;;;;;;;;;;;;17.36;74.99;94796.75;5007128;28;19921;-82
2021/05/27 02:52:12;;;;;;;;;;;;;;;17.36;74.99;94797.53;5024830;28;19934;-82
2021/05/27 02:54:38;;;;;;;;;;;;;;;17.25;75.08;94796.06;4997109;28;20309;-81
2021/05/27 02:57:03;;;;;;;;;;;;;;;17.21;74.86;94795.03;5013491;23;19929;-80
2021/05/27 02:59:28;;;;;;;;;;;;;;;17.29;74.75;94791.81;5031852;28;20136;-80
2021/05/27 03:01:54;;;;;;;;;;;;;;;17.38;74.45;94800.69;5015866;28;19925;-81
2021/05/27 03:04:19;;;;;;;;;;;;;;;17.36;74.21;94800.16;5016133;28;19921;-81
2021/05/27 03:06:45;;;;;;;;;;;;;;;17.35;73.89;94801.22;5015591;28;19928;-81
2021/05/27 03:09:10;;;;;;;;;;;;;;;17.33;73.99;94800.72;4998478;28;20403;-82
2021/05/27 03:11:35;;;;;;;;;;;;;;;17.28;74.15;94797.34;5031774;28;20023;-82
2021/05/27 03:14:00;;;;;;;;;;;;;;;17.44;73.83;94805.91;5032783;28;19917;-81
2021/05/27 03:16:26;;;;;;;;;;;;;;;17.56;73.36;94801.06;5038266;22;20030;-82
2021/05/27 03:18:51;;;;;;;;;;;;;;;17.62;72.85;94810.50;5018937;28;19937;-82
2021/05/27 03:21:16;;;;;;;;;;;;;;;17.78;72.34;94809.34;5011807;28;19930;-82
2021/05/27 03:26:17;;;;;;;;;;;;;;;18.13;71.61;94799.53;5364725;22;19925;-83
2021/05/27 03:28:42;;;;;;;;;;;;;;;18.19;70.68;94806.31;5033070;28;20400;-81
2021/05/27 03:31:07;;;;;;;;;;;;;;;18.28;70.21;94812.56;5036782;28;20364;-82
2021/05/27 03:33:33;;;;;;;;;;;;;;;18.42;69.81;94824.00;5014242;28;19928;-82
2021/05/27 03:35:58;;;;;;;;;;;;;;;18.54;69.33;94821.72;5091733;23;19925;-81
2021/05/27 03:38:23;;;;;;;;;;;;;;;18.55;68.82;94814.63;5040942;28;19921;-81
2021/05/27 03:40:49;;;;;;;;;;;;;;;18.44;68.81;94810.53;5032713;28;20552;-81
2021/05/27 03:43:17;;;;;;;;;;;;;;;18.26;69.63;94815.47;5050452;28;20028;-81
2021/05/27 03:45:42;;;;;;;;;;;;;;;18.33;69.16;94814.34;5050299;28;19924;-81
2021/05/27 03:48:08;;;;;;;;;;;;;;;18.48;69.02;94809.69;5049194;28;19925;-82
2021/05/27 03:50:34;;;;;;;;;;;;;;;18.67;67.90;94808.97;5050058;28;19917;-82
2021/05/27 03:53:00;;;;;;;;;;;;;;;18.72;66.80;94806.28;5051676;28;19920;-82
2021/05/27 03:55:26;;;;;;;;;;;;;;;19.01;65.87;94809.56;5050789;28;19925;-82
2021/05/27 03:57:52;;;;;;;;;;;;;;;19.15;65.42;94815.72;5032574;28;19985;-82
2021/05/27 04:03:03;;;;;;;;;;;;;;;20.02;60.37;94827.63;5043340;28;19927;-82
2021/05/27 04:08:13;;;;;;;;;;;;;;;20.59;58.75;94830.81;5071844;28;19932;-81
2021/05/27 04:10:38;;;;;;;;;;;;;;;21.08;57.17;94819.50;5073320;28;20024;-82
2021/05/27 04:13:03;;;;;;;;;;;;;;;21.23;55.56;94821.81;5019720;28;19921;-83
2021/05/27 04:15:33;;;;;;;;;;;;;;;21.60;54.09;94822.59;5038102;28;19925;-83
2021/05/27 04:18:01;;;;;;;;;;;;;;;22.36;52.30;94817.31;5037334;28;19989;-83
2021/05/27 04:20:33;;;;;;;;;;;;;;;23.10;49.46;94814.72;5054365;28;19982;-82
2021/05/27 04:22:58;;;;;;;;;;;;;;;23.79;47.72;94814.75;5054744;28;19917;-83
2021/05/27 04:25:25;;;;;;;;;;;;;;;24.69;45.03;94819.19;5053121;28;19927;-80
2021/05/27 04:27:52;;;;;;;;;;;;;;;25.27;43.56;94821.06;5055117;28;19925;-87
2021/05/27 04:30:20;;;;;;;;;;;;;;;25.98;41.95;94820.94;5037621;28;19921;-87
2021/05/27 04:32:56;;;;;;;;;;;;;;;27.15;39.62;94825.88;5037865;28;19944;-86
2021/05/27 04:35:37;;;;;;;;;;;;;;;28.07;37.45;94830.38;5112268;22;19957;-86
2021/05/27 04:38:06;;;;;;;;;;;;;;;28.24;36.80;94824.72;5034959;28;19922;-85
2021/05/27 04:40:31;;;;;;;;;;;;;;;28.04;36.38;94826.50;5039391;28;19925;-85
2021/05/27 04:42:56;;;;;;;;;;;;;;;28.42;36.06;94824.41;5011279;23;19925;-85
2021/05/27 04:45:22;;;;;;;;;;;;;;;28.55;35.83;94828.56;4998570;28;19976;-85
2021/05/27 04:47:47;;;;;;;;;;;;;;;28.61;35.48;94827.16;5039049;28;19928;-85
2021/05/27 04:50:12;;;;;;;;;;;;;;;29.14;35.00;94827.69;5004485;28;19929;-85
2021/05/27 04:52:38;;;;;;;;;;;;;;;29.31;34.47;94834.53;5091220;22;19921;-81
2021/05/27 04:55:04;;;;;;;;;;;;;;;29.43;33.99;94829.03;5035276;28;20340;-80
2021/05/27 04:57:29;;;;;;;;;;;;;;;29.59;34.20;94827.88;5040788;28;19927;-83
2021/05/27 04:59:54;;;;;;;;;;;;;;;29.49;34.68;94822.31;5023609;28;19970;-83
2021/05/27 05:02:20;;;;;;;;;;;;;;;29.67;34.16;94818.09;5040486;28;19921;-82
2021/05/27 05:04:45;;;;;;;;;;;;;;;30.22;32.94;94817.97;5039583;28;19978;-82
2021/05/27 05:09:35;;;;;;;;;;;;;;;31.26;31.88;94824.69;5315846;22;19925;-85
2021/05/27 05:12:01;;;;;;;;;;;;;;;32.06;30.87;94811.06;5039462;28;19925;-85
2021/05/27 05:14:26;;;;;;;;;;;;;;;32.44;29.66;94810.69;5030786;28;19956;-83
2021/05/27 05:16:51;;;;;;;;;;;;;;;32.95;28.95;94817.25;4996569;28;19944;-84
2021/05/27 05:19:17;;;;;;;;;;;;;;;33.30;28.10;94822.09;5041500;22;19925;-85
2021/05/27 05:21:42;;;;;;;;;;;;;;;33.95;27.62;94813.94;5030973;28;20324;-81
2021/05/27 05:24:08;;;;;;;;;;;;;;;34.41;26.78;94813.31;5021908;28;20397;-86
2021/05/27 05:26:33;;;;;;;;;;;;;;;34.30;26.42;94815.19;5001404;28;19922;-87
2021/05/27 05:28:59;;;;;;;;;;;;;;;34.60;26.47;94821.03;4997538;28;20312;-85
2021/05/27 05:31:24;;;;;;;;;;;;;;;35.15;25.30;94817.19;5015396;28;19936;-85
2021/05/27 05:33:54;;;;;;;;;;;;;;;36.20;24.16;94817.19;5014930;28;19957;-85
2021/05/27 05:36:20;;;;;;;;;;;;;;;37.50;22.67;94827.38;4983422;28;19957;-86
2021/05/27 05:38:45;;;;;;;;;;;;;;;37.47;22.55;94827.44;4996135;28;19933;-87
2021/05/27 05:41:13;;;;;;;;;;;;;;;38.23;21.67;94819.94;4996753;28;20422;-88
2021/05/27 05:43:39;;;;;;;;;;;;;;;38.59;20.92;94817.47;5042915;22;19933;-88
2021/05/27 05:46:07;;;;;;;;;;;;;;;39.45;20.59;94816.81;5061735;28;19921;-87
2021/05/27 05:51:01;;;;;;;;;;;;;;;41.30;18.47;94818.94;5142801;22;19963;-85
2021/05/27 05:53:26;;;;;;;;;;;;;;;41.29;18.32;94822.13;5051153;28;19905;-87
2021/05/27 05:55:52;;;;;;;;;;;;;;;42.10;17.40;94834.75;5030174;28;19927;-88
2021/05/27 05:58:18;;;;;;;;;;;;;;;42.14;17.93;94830.69;5034268;28;19925;-87
2021/05/27 06:00:57;;;;;;;;;;;;;;;41.97;17.19;94826.50;5192163;27;20026;-85
2021/05/27 06:03:22;;;;;;;;;;;;;;;42.32;17.46;94829.41;5169120;27;20387;-82
2021/05/27 06:05:47;;;;;;;;;;;;;;;42.33;16.88;94822.75;5166133;27;19927;-82
2021/05/27 06:08:13;;;;;;;;;;;;;;;42.28;17.18;94817.81;5165649;27;19965;-83
2021/05/27 06:10:38;;;;;;;;;;;;;;;42.84;16.21;94816.03;5165072;27;19926;-85
2021/05/27 06:13:03;;;;;;;;;;;;;;;43.14;15.16;94816.66;5146575;27;19946;-86
2021/05/27 06:15:29;;;;;;;;;;;;;;;43.51;15.53;94816.97;5180788;27;19926;-86
2021/05/27 06:17:54;;;;;;;;;;;;;;;43.97;15.12;94818.81;5166202;27;19942;-86
2021/05/27 06:20:20;;;;;;;;;;;;;;;43.22;15.75;94819.91;5174801;27;19915;-86
2021/05/27 06:22:46;;;;;;;;;;;;;;;42.94;15.97;94805.19;5145088;27;19919;-86
2021/05/27 06:25:11;;;;;;;;;;;;;;;42.53;15.91;94802.19;5166569;27;19922;-87
2021/05/27 06:27:36;;;;;;;;;;;;;;;43.11;15.57;94812.03;5167925;27;19923;-85
2021/05/27 06:30:02;;;;;;;;;;;;;;;43.16;14.88;94808.75;5180296;27;19926;-85
2021/05/27 06:32:29;;;;;;;;;;;;;;;40.96;17.18;94794.09;5177629;27;19946;-85
2021/05/27 06:34:55;;;;;;;;;;;;;;;41.66;16.77;94796.97;5177223;27;19910;-86
2021/05/27 06:37:20;;;;;;;;;;;;;;;41.15;16.90;94800.63;5152311;27;19923;-86
2021/05/27 06:39:45;;;;;;;;;;;;;;;40.49;17.90;94800.66;5165038;27;19919;-87
2021/05/27 06:42:10;;;;;;;;;;;;;;;40.39;17.92;94804.41;5167166;27;19926;-86
2021/05/27 06:44:38;;;;;;;;;;;;;;;39.63;18.64;94789.28;5165689;27;20382;-86
2021/05/27 06:47:03;;;;;;;;;;;;;;;39.82;18.54;94791.97;5169033;27;19957;-87
2021/05/27 06:49:29;;;;;;;;;;;;;;;39.70;18.77;94787.16;5163352;27;19918;-87
2021/05/27 06:52:01;;;;;;;;;;;;;;;38.34;20.63;94785.25;5165473;27;19986;-85
2021/05/27 06:54:26;;;;;;;;;;;;;;;38.23;20.45;94784.63;5169100;22;19928;-83
2021/05/27 06:56:56;;;;;;;;;;;;;;;37.87;21.21;94785.09;5091874;28;19927;-85
2021/05/27 06:59:22;;;;;;;;;;;;;;;37.74;21.33;94784.09;5091169;28;20382;-85
2021/05/27 07:01:47;;;;;;;;;;;;;;;37.07;21.99;94780.16;5079964;28;20392;-85
2021/05/27 07:04:12;;;;;;;;;;;;;;;36.13;23.16;94782.06;5088878;28;20319;-85
2021/05/27 07:06:38;;;;;;;;;;;;;;;35.26;24.18;94773.88;5071985;28;20007;-84
2021/05/27 07:09:03;;;;;;;;;;;;;;;34.28;25.47;94777.00;5089085;28;19928;-84
2021/05/27 07:11:29;;;;;;;;;;;;;;;33.96;25.56;94777.72;5079464;28;19938;-84
2021/05/27 07:13:54;;;;;;;;;;;;;;;33.71;25.91;94782.25;5054312;28;19960;-84
2021/05/27 07:16:19;;;;;;;;;;;;;;;33.13;27.22;94775.03;5066694;28;19931;-81
2021/05/27 07:18:44;;;;;;;;;;;;;;;33.12;26.82;94774.25;5076419;28;19920;-82
2021/05/27 07:21:10;;;;;;;;;;;;;;;33.19;27.16;94778.91;5078552;28;19921;-83
2021/05/27 07:23:35;;;;;;;;;;;;;;;32.36;27.68;94776.00;5075460;28;19928;-84
2021/05/27 07:26:02;;;;;;;;;;;;;;;32.16;27.96;94778.88;5049784;28;19995;-83
2021/05/27 07:28:28;;;;;;;;;;;;;;;31.20;29.18;94775.06;5075276;28;19927;-83
2021/05/27 07:30:53;;;;;;;;;;;;;;;30.47;30.79;94771.66;5049439;28;19920;-83
2021/05/27 07:33:20;;;;;;;;;;;;;;;30.25;31.19;94759.03;5076643;28;20315;-82
2021/05/27 07:35:45;;;;;;;;;;;;;;;29.96;31.44;94765.03;5075480;28;20319;-83
2021/05/27 07:38:11;;;;;;;;;;;;;;;30.02;31.52;94756.31;5076567;28;19923;-84
2021/05/27 07:40:36;;;;;;;;;;;;;;;30.14;31.43;94750.81;5076519;28;19920;-83
2021/05/27 07:43:02;;;;;;;;;;;;;;;30.55;31.24;94759.13;5091768;28;19924;-83
2021/05/27 07:45:28;;;;;;;;;;;;;;;30.65;30.69;94755.09;5075410;28;20011;-82
2021/05/27 07:47:53;;;;;;;;;;;;;;;30.89;30.27;94762.72;5084531;28;19939;-83
2021/05/27 07:50:20;;;;;;;;;;;;;;;30.56;30.89;94754.53;5077260;28;19921;-83
2021/05/27 07:52:45;;;;;;;;;;;;;;;30.65;30.59;94752.41;5067230;28;20360;-83
2021/05/27 07:55:11;;;;;;;;;;;;;;;30.86;30.38;94752.72;5088732;28;19939;-82
2021/05/27 07:57:36;;;;;;;;;;;;;;;30.57;30.87;94756.84;5097264;22;19925;-82
2021/05/27 08:00:02;;;;;;;;;;;;;;;30.82;30.83;94751.13;5083102;28;20506;-83
2021/05/27 08:02:28;;;;;;;;;;;;;;;30.44;30.80;94752.84;5076575;28;19940;-84
2021/05/27 08:04:53;;;;;;;;;;;;;;;29.92;31.79;94742.72;5074521;28;19920;-83
2021/05/27 08:07:18;;;;;;;;;;;;;;;29.29;32.80;94747.28;5077352;28;20395;-83
2021/05/27 08:09:44;;;;;;;;;;;;;;;28.93;33.91;94755.69;5077224;28;20002;-83
2021/05/27 08:12:09;;;;;;;;;;;;;;;28.69;33.11;94749.41;5075892;28;20015;-84
2021/05/27 08:14:34;;;;;;;;;;;;;;;28.72;32.49;94741.81;5076854;28;19925;-85
2021/05/27 08:17:00;;;;;;;;;;;;;;;28.55;33.44;94743.72;5076056;28;19974;-84
2021/05/27 08:19:25;;;;;;;;;;;;;;;28.42;33.50;94739.59;5059648;28;19920;-84
2021/05/27 08:21:51;;;;;;;;;;;;;;;27.87;34.42;94741.28;5075401;28;20007;-84
2021/05/27 08:24:16;;;;;;;;;;;;;;;27.76;35.14;94726.88;5075367;28;19916;-84
2021/05/27 08:26:44;;;;;;;;;;;;;;;27.82;35.24;94741.53;5075461;28;19925;-85
2021/05/27 08:29:09;;;;;;;;;;;;;;;27.72;35.48;94734.81;5076668;28;19920;-83
2021/05/27 08:31:39;;;;;;;;;;;;;;;27.59;35.59;94727.16;5080925;28;19927;-83
2021/05/27 08:34:04;;;;;;;;;;;;;;;27.39;36.27;94727.03;5076873;28;19916;-83
2021/05/27 08:36:29;;;;;;;;;;;;;;;27.65;35.72;94723.13;5076348;28;19927;-84
2021/05/27 08:38:54;;;;;;;;;;;;;;;27.17;36.03;94715.00;5077307;28;19924;-83
2021/05/27 08:41:20;;;;;;;;;;;;;;;27.30;36.33;94713.03;5076962;28;19988;-84
2021/05/27 08:43:48;;;;;;;;;;;;;;;27.31;36.76;94706.56;5087806;28;19951;-82
2021/05/27 08:46:14;;;;;;;;;;;;;;;27.43;36.16;94717.22;5073942;28;19999;-82
2021/05/27 08:48:42;;;;;;;;;;;;;;;27.30;36.16;94722.94;5072730;28;20482;-82
2021/05/27 08:51:12;;;;;;;;;;;;;;;27.10;33.80;94719.34;5090658;28;19931;-82
2021/05/27 08:53:44;;;;;;;;;;;;;;;26.61;35.86;94722.06;5074000;28;19917;-82
2021/05/27 08:56:10;;;;;;;;;;;;;;;26.49;37.08;94708.75;5090099;28;20015;-83
2021/05/27 08:58:35;;;;;;;;;;;;;;;26.65;37.50;94701.63;5087588;28;19932;-84
2021/05/27 09:01:00;;;;;;;;;;;;;;;26.60;37.59;94699.97;5092261;22;19946;-84
2021/05/27 09:03:41;;;;;;;;;;;;;;;26.53;38.02;94702.44;5104179;28;19966;-83
2021/05/27 09:06:07;;;;;;;;;;;;;;;26.55;38.08;94694.88;5111719;28;19927;-84
2021/05/27 09:08:34;;;;;;;;;;;;;;;26.64;38.01;94697.38;5109062;28;19923;-84
2021/05/27 09:11:09;;;;;;;;;;;;;;;26.61;37.99;94692.72;5111074;28;19920;-84
2021/05/27 09:13:34;;;;;;;;;;;;;;;26.38;38.04;94691.66;5164189;22;19928;-84
2021/05/27 09:16:07;;;;;;;;;;;;;;;26.35;38.51;94682.41;5118385;28;19968;-83
2021/05/27 09:18:47;;;;;;;;;;;;;;;26.72;37.46;94688.50;5115848;28;20570;-84
2021/05/27 09:21:13;;;;;;;;;;;;;;;26.47;38.20;94685.09;5116031;28;19981;-84
2021/05/27 09:23:51;;;;;;;;;;;;;;;26.19;38.45;94687.63;5456264;22;20318;-84
2021/05/27 09:26:17;;;;;;;;;;;;;;;26.04;39.12;94690.97;5137260;28;19958;-84
2021/05/27 09:28:43;;;;;;;;;;;;;;;26.14;39.50;94679.84;5119481;28;20163;-84
2021/05/27 09:31:10;;;;;;;;;;;;;;;25.95;40.12;94671.63;5221391;22;20430;-83
2021/05/27 09:33:36;;;;;;;;;;;;;;;26.06;40.15;94667.44;5117131;28;19939;-83
2021/05/27 09:36:08;;;;;;;;;;;;;;;26.07;41.00;94655.66;5090156;28;19939;-83
2021/05/27 09:38:34;;;;;;;;;;;;;;;26.23;40.51;94656.53;5103783;28;19924;-83
2021/05/27 09:41:00;;;;;;;;;;;;;;;26.32;40.19;94659.06;5102663;28;19920;-84
2021/05/27 09:43:25;;;;;;;;;;;;;;;26.55;39.97;94651.41;5088300;28;19923;-84
2021/05/27 09:46:01;;;;;;;;;;;;;;;26.59;39.43;94662.97;5089630;28;19919;-83
2021/05/27 09:48:26;;;;;;;;;;;;;;;26.52;39.30;94644.88;5085119;28;20333;-83
2021/05/27 09:50:54;;;;;;;;;;;;;;;26.24;39.89;94663.41;5101796;28;20023;-83
2021/05/27 09:53:20;;;;;;;;;;;;;;;26.12;40.47;94639.44;5104156;28;19920;-83
2021/05/27 09:55:46;;;;;;;;;;;;;;;26.21;40.36;94647.31;5104567;28;19931;-82
2021/05/27 09:58:11;;;;;;;;;;;;;;;26.13;40.45;94646.31;5105921;28;19919;-82
2021/05/27 10:00:37;;;;;;;;;;;;;;;26.08;41.06;94649.22;5108219;28;19924;-84
2021/05/27 10:03:20;;;;;;;;;;;;;;;26.19;40.84;94644.19;5096944;28;20311;-84
2021/05/27 10:05:45;;;;;;;;;;;;;;;26.48;40.45;94632.53;5103418;28;19924;-84
2021/05/27 10:08:11;;;;;;;;;;;;;;;26.66;40.86;94641.81;5104287;28;20364;-84
2021/05/27 10:10:36;;;;;;;;;;;;;;;26.33;40.65;94641.97;5087867;28;19916;-84
2021/05/27 10:13:01;;;;;;;;;;;;;;;26.42;40.80;94631.22;5105185;28;19943;-84
2021/05/27 10:15:26;;;;;;;;;;;;;;;26.27;41.04;94632.66;5088300;28;19920;-84
2021/05/27 10:17:54;;;;;;;;;;;;;;;26.26;41.26;94639.88;5103355;28;19920;-84
2021/05/27 10:20:21;;;;;;;;;;;;;;;26.57;40.32;94638.53;5114525;28;19924;-83
2021/05/27 10:22:46;;;;;;;;;;;;;;;26.21;41.27;94632.09;5116721;28;19928;-83
2021/05/27 10:25:12;;;;;;;;;;;;;;;26.00;41.77;94626.88;5117841;28;19931;-83
2021/05/27 10:27:38;;;;;;;;;;;;;;;25.85;41.50;94638.19;5106804;28;19924;-83
2021/05/27 10:30:06;;;;;;;;;;;;;;;25.62;41.85;94626.41;5101032;28;20018;-82
2021/05/27 10:32:32;;;;;;;;;;;;;;;25.52;41.74;94616.94;5112200;28;19920;-81
2021/05/27 10:34:57;;;;;;;;;;;;;;;25.55;42.18;94612.88;5122143;28;19920;-83
2021/05/27 10:37:38;;;;;;;;;;;;;;;25.49;40.23;94606.97;5113095;28;19920;-83
2021/05/27 10:40:23;;;;;;;;;;;;;;;25.40;40.60;94614.28;5106233;28;20345;-83
2021/05/27 10:42:55;;;;;;;;;;;;;;;25.40;39.36;94593.00;5112265;28;20330;-83
2021/05/27 10:45:20;;;;;;;;;;;;;;;25.40;39.39;94596.44;5103972;28;19924;-83
2021/05/27 10:48:04;;;;;;;;;;;;;;;25.47;37.96;94597.75;5106162;28;19973;-83
2021/05/27 10:50:54;;;;;;;;;;;;;;;25.49;38.02;94601.63;5115119;28;19930;-83
2021/05/27 10:53:38;;;;;;;;;;;;;;;25.33;37.61;94619.34;5106162;28;19924;-82
2021/05/27 10:56:11;;;;;;;;;;;;;;;25.40;38.11;94603.63;5107360;28;19920;-82
2021/05/27 10:58:48;;;;;;;;;;;;;;;25.49;37.79;94611.50;5110886;28;19945;-82
2021/05/27 11:01:17;;;;;;;;;;;;;;;25.53;38.35;94613.16;5110344;28;19920;-82
2021/05/27 11:03:43;;;;;;;;;;;;;;;25.52;38.76;94610.84;5109213;28;19973;-82
2021/05/27 11:06:20;;;;;;;;;;;;;;;25.32;39.35;94601.81;5113979;28;19916;-82
2021/05/27 11:08:46;;;;;;;;;;;;;;;25.43;39.53;94618.94;5125144;28;19923;-83
2021/05/27 11:11:30;;;;;;;;;;;;;;;25.54;38.91;94608.63;5115422;28;19924;-83
2021/05/27 11:14:14;;;;;;;;;;;;;;;25.68;38.34;94601.91;5110493;28;19924;-83
2021/05/27 11:16:58;;;;;;;;;;;;;;;25.82;37.42;94582.16;5111091;28;19924;-82
2021/05/27 11:19:53;;;;;;;;;;;;;;;25.65;37.17;94577.78;5114928;28;20422;-83
2021/05/27 11:25:11;;;;;;;;;;;;;;;25.58;37.22;94575.69;5108240;28;19979;-83
2021/05/27 11:27:50;;;;;;;;;;;;;;;25.63;36.84;94585.34;5114488;28;19941;-81
2021/05/27 11:30:15;;;;;;;;;;;;;;;25.47;37.35;94587.09;5097936;28;19920;-84
2021/05/27 11:32:41;;;;;;;;;;;;;;;25.11;37.46;94580.59;5106365;28;19946;-82
2021/05/27 11:35:06;;;;;;;;;;;;;;;25.29;37.20;94581.19;5108439;28;19972;-83
2021/05/27 11:37:35;;;;;;;;;;;;;;;25.20;36.84;94585.81;5108946;28;19931;-84
2021/05/27 11:40:00;;;;;;;;;;;;;;;25.12;34.90;94587.47;5097685;28;19927;-83
2021/05/27 11:42:26;;;;;;;;;;;;;;;25.04;34.03;94575.81;5108188;28;20364;-83
2021/05/27 11:45:01;;;;;;;;;;;;;;;25.01;31.09;94579.13;5104630;28;20047;-84
2021/05/27 11:47:29;;;;;;;;;;;;;;;25.12;31.52;94574.19;5096908;28;19958;-84
2021/05/27 11:52:38;;;;;;;;;;;;;;;25.46;31.73;94575.69;5131581;27;19939;-82
2021/05/27 11:55:04;;;;;;;;;;;;;;;25.44;33.48;94573.34;5105343;28;19924;-83
2021/05/27 11:57:45;;;;;;;;;;;;;;;25.50;34.93;94570.47;5081106;28;19917;-84
2021/05/27 12:00:11;;;;;;;;;;;;;;;25.37;38.48;94583.75;5081042;28;19927;-83
2021/05/27 12:02:43;;;;;;;;;;;;;;;25.20;39.68;94578.63;5088094;28;20395;-81
2021/05/27 12:05:21;;;;;;;;;;;;;;;25.27;38.67;94584.19;5079801;28;19920;-83
2021/05/27 12:08:06;;;;;;;;;;;;;;;25.33;40.36;94579.44;5096128;28;19920;-82
2021/05/27 12:10:35;;;;;;;;;;;;;;;25.28;40.81;94588.41;5096679;28;19920;-84
2021/05/27 12:13:00;;;;;;;;;;;;;;;25.58;40.68;94604.22;5082537;28;19924;-83
2021/05/27 12:15:26;;;;;;;;;;;;;;;25.64;40.88;94608.97;5097813;28;19927;-85
2021/05/27 12:17:52;;;;;;;;;;;;;;;25.35;39.97;94617.13;5247972;22;19934;-84
2021/05/27 12:20:20;;;;;;;;;;;;;;;25.36;39.69;94598.16;5126437;28;19920;-83
2021/05/27 12:22:52;;;;;;;;;;;;;;;25.51;39.16;94593.31;5121279;28;19919;-84
2021/05/27 12:25:19;;;;;;;;;;;;;;;25.65;38.51;94621.19;5125477;28;19919;-83
2021/05/27 12:27:45;;;;;;;;;;;;;;;25.65;38.29;94607.88;5108606;28;20306;-83
2021/05/27 12:30:11;;;;;;;;;;;;;;;25.09;39.69;94604.88;5127669;28;19919;-84
2021/05/27 12:32:39;;;;;;;;;;;;;;;24.92;40.22;94591.72;5125628;28;20356;-84
2021/05/27 12:35:05;;;;;;;;;;;;;;;24.85;41.27;94583.47;5129861;28;20414;-83
2021/05/27 12:37:47;;;;;;;;;;;;;;;24.80;40.40;94583.69;5105928;28;19919;-84
2021/05/27 12:40:13;;;;;;;;;;;;;;;24.83;41.11;94570.50;5121075;28;19930;-83
2021/05/27 12:42:39;;;;;;;;;;;;;;;24.78;40.40;94577.94;5127262;28;20010;-83
2021/05/27 12:45:23;;;;;;;;;;;;;;;24.39;39.58;94560.56;5124282;28;19962;-84
2021/05/27 12:50:35;;;;;;;;;;;;;;;24.46;39.71;94568.81;5159223;22;19923;-83
2021/05/27 12:53:19;;;;;;;;;;;;;;;24.31;39.76;94574.72;5133604;28;19920;-83
2021/05/27 12:55:45;;;;;;;;;;;;;;;24.17;39.65;94567.72;5125279;28;19920;-84
2021/05/27 12:58:10;;;;;;;;;;;;;;;24.24;38.69;94564.56;5120961;28;20383;-83
2021/05/27 13:00:48;;;;;;;;;;;;;;;24.11;38.07;94558.41;5123929;28;19941;-83
2021/05/27 13:03:13;;;;;;;;;;;;;;;24.00;39.51;94551.13;5106015;28;19920;-83
2021/05/27 13:05:38;;;;;;;;;;;;;;;23.78;41.40;94546.91;5123133;28;20147;-83
2021/05/27 13:08:04;;;;;;;;;;;;;;;23.98;41.10;94546.16;5107309;28;19920;-84
2021/05/27 13:10:36;;;;;;;;;;;;;;;24.13;41.17;94564.19;5123067;28;19920;-83
2021/05/27 13:13:01;;;;;;;;;;;;;;;23.88;41.78;94552.59;5122709;28;20411;-83
2021/05/27 13:15:27;;;;;;;;;;;;;;;23.48;43.45;94572.63;5129530;28;19926;-84